createdAt,value
2022-12-12T00:00:58.627Z,70.10
2022-12-12T00:03:30.900Z,70.20
2022-12-12T00:05:58.883Z,70.60
2022-12-12T00:08:26.846Z,70.80
2022-12-12T00:10:54.802Z,71.00
2022-12-12T00:13:22.694Z,72.50
2022-12-12T00:15:50.619Z,72.00
2022-12-12T00:18:19.853Z,72.60
2022-12-12T00:20:52.409Z,72.90
2022-12-12T00:23:20.325Z,71.80
2022-12-12T00:25:55.245Z,71.80
2022-12-12T00:28:23.253Z,71.60
2022-12-12T00:30:51.253Z,72.40
2022-12-12T00:33:20.537Z,73.30
2022-12-12T00:35:51.167Z,72.70
2022-12-12T00:38:19.168Z,73.20
2022-12-12T00:40:47.252Z,73.40
2022-12-12T00:43:15.229Z,74.10
2022-12-12T00:45:43.281Z,74.00
2022-12-12T00:48:11.414Z,74.10
2022-12-12T00:50:40.747Z,73.90
2022-12-12T00:53:08.622Z,73.90
2022-12-12T00:55:36.505Z,74.10
2022-12-12T00:58:04.512Z,73.50
2022-12-12T01:00:32.925Z,73.10
2022-12-12T01:03:01.057Z,73.80
2022-12-12T01:05:29.309Z,73.90
2022-12-12T01:07:58.859Z,73.00
2022-12-12T01:10:27.153Z,72.80
2022-12-12T01:12:55.013Z,72.60
2022-12-12T01:15:23.312Z,73.50
2022-12-12T01:17:51.169Z,74.10
2022-12-12T01:20:22.489Z,74.50
2022-12-12T01:22:51.320Z,75.30
2022-12-12T01:25:21.230Z,75.10
2022-12-12T01:27:49.483Z,74.70
2022-12-12T01:30:19.709Z,75.20
2022-12-12T01:32:47.647Z,74.70
2022-12-12T01:35:15.742Z,74.50
2022-12-12T01:37:43.877Z,75.10
2022-12-12T01:40:16.886Z,74.70
2022-12-12T01:42:46.437Z,74.10
2022-12-12T01:45:51.787Z,74.80
2022-12-12T01:48:20.035Z,75.60
2022-12-12T01:50:48.084Z,74.80
2022-12-12T01:53:19.033Z,74.60
2022-12-12T01:55:48.053Z,75.20
2022-12-12T01:58:18.167Z,75.00
2022-12-12T02:00:46.916Z,75.40
2022-12-12T02:03:14.911Z,75.90
2022-12-12T02:05:47.771Z,75.60
2022-12-12T02:08:17.172Z,75.80
2022-12-12T02:10:45.675Z,76.20
2022-12-12T02:13:19.889Z,76.30
2022-12-12T02:16:07.130Z,76.60
2022-12-12T02:18:40.654Z,76.70
2022-12-12T02:21:16.459Z,76.80
2022-12-12T02:24:26.083Z,76.30
2022-12-12T02:27:17.256Z,76.60
2022-12-12T02:30:06.834Z,76.70
2022-12-12T02:32:51.614Z,76.50
2022-12-12T02:35:24.413Z,76.60
2022-12-12T02:37:58.546Z,75.90
2022-12-12T02:40:33.715Z,76.10
2022-12-12T02:43:10.325Z,76.20
2022-12-12T02:45:42.057Z,76.80
2022-12-12T02:48:16.099Z,76.80
2022-12-12T02:50:45.888Z,76.80
2022-12-12T02:53:13.820Z,76.90
2022-12-12T02:55:42.027Z,77.90
2022-12-12T02:58:10.186Z,77.90
2022-12-12T03:00:49.813Z,78.00
2022-12-12T03:03:57.642Z,77.90
2022-12-12T03:07:00.787Z,78.80
2022-12-12T03:09:41.178Z,79.40
2022-12-12T03:12:15.391Z,79.10
2022-12-12T03:14:53.404Z,78.80
2022-12-12T03:17:30.964Z,78.80
2022-12-12T03:20:07.484Z,78.80
2022-12-12T03:22:42.402Z,78.10
2022-12-12T03:25:15.912Z,78.10
2022-12-12T03:27:49.468Z,78.50
2022-12-12T03:30:19.708Z,78.10
2022-12-12T03:32:53.609Z,78.50
2022-12-12T03:35:27.653Z,79.50
2022-12-12T03:38:00.641Z,79.30
2022-12-12T03:40:34.531Z,79.00
2022-12-12T03:43:06.427Z,78.80
2022-12-12T03:45:39.382Z,78.80
2022-12-12T03:48:13.365Z,78.70
2022-12-12T03:50:48.823Z,78.20
2022-12-12T03:53:22.089Z,78.70
2022-12-12T03:55:54.768Z,78.80
2022-12-12T03:58:28.347Z,78.80
2022-12-12T04:00:59.122Z,78.30
2022-12-12T04:03:33.237Z,77.90
2022-12-12T04:06:25.925Z,78.40
2022-12-12T04:09:12.414Z,78.10
2022-12-12T04:12:00.982Z,78.70
2022-12-12T04:14:53.335Z,78.70
2022-12-12T04:17:30.481Z,78.60
2022-12-12T04:20:22.595Z,78.90
2022-12-12T04:23:17.666Z,79.50
2022-12-12T04:26:15.008Z,79.80
2022-12-12T04:28:49.263Z,79.50
2022-12-12T04:31:22.965Z,79.60
2022-12-12T04:33:54.006Z,79.40
2022-12-12T04:36:24.613Z,79.70
2022-12-12T04:38:54.317Z,79.70
2022-12-12T04:41:23.571Z,79.70
2022-12-12T04:43:55.299Z,79.20
2022-12-12T04:46:27.872Z,79.20
2022-12-12T04:48:59.184Z,79.00
2022-12-12T04:51:30.942Z,78.60
2022-12-12T04:54:06.801Z,78.60
2022-12-12T04:56:37.068Z,78.60
2022-12-12T04:59:06.417Z,78.40
2022-12-12T05:01:48.196Z,78.40
2022-12-12T05:04:25.457Z,78.40
2022-12-12T05:06:59.914Z,78.40
2022-12-12T05:09:29.342Z,78.30
2022-12-12T05:11:57.211Z,78.30
2022-12-12T05:14:25.082Z,78.30
2022-12-12T05:16:56.704Z,78.30
2022-12-12T05:19:24.669Z,77.00
2022-12-12T05:21:52.527Z,77.90
2022-12-12T05:24:20.430Z,78.10
2022-12-12T05:26:49.854Z,76.20
2022-12-12T05:29:17.751Z,76.40
2022-12-12T05:31:45.687Z,76.40
2022-12-12T05:34:13.567Z,76.90
2022-12-12T05:36:41.448Z,77.30
2022-12-12T05:39:09.397Z,77.40
2022-12-12T05:41:37.289Z,76.60
2022-12-12T05:44:06.701Z,77.30
2022-12-12T05:46:34.626Z,77.60
2022-12-12T05:49:02.534Z,77.60
2022-12-12T05:51:30.380Z,76.70
2022-12-12T05:53:58.333Z,76.10
2022-12-12T05:56:26.195Z,73.30
2022-12-12T05:58:54.134Z,72.90
2022-12-12T06:01:23.360Z,72.40
2022-12-12T06:03:51.379Z,73.10
2022-12-12T06:06:19.364Z,73.60
2022-12-12T06:08:47.260Z,74.00
2022-12-12T06:11:15.145Z,74.90
2022-12-12T06:13:43.028Z,74.90
2022-12-12T06:16:13.905Z,70.10
2022-12-12T06:18:43.331Z,71.10
2022-12-12T06:21:13.166Z,72.00
2022-12-12T06:23:42.325Z,73.50
2022-12-12T06:26:12.850Z,75.10
2022-12-12T06:28:41.519Z,73.30
2022-12-12T06:31:12.147Z,72.10
2022-12-12T06:33:40.693Z,70.90
2022-12-12T06:36:13.942Z,71.60
2022-12-12T06:38:42.459Z,70.80
2022-12-12T06:41:11.957Z,71.80
2022-12-12T06:43:40.229Z,73.40
2022-12-12T06:46:11.453Z,75.30
2022-12-12T06:48:39.447Z,76.30
2022-12-12T06:51:09.854Z,77.30
2022-12-12T06:53:39.058Z,77.80
2022-12-12T06:56:08.601Z,76.30
2022-12-12T06:58:36.740Z,75.80
2022-12-12T07:01:05.387Z,73.00
2022-12-12T07:03:33.671Z,72.00
2022-12-12T07:06:01.975Z,71.90
2022-12-12T07:08:31.281Z,72.90
2022-12-12T07:11:05.211Z,74.30
2022-12-12T07:13:33.318Z,73.30
2022-12-12T07:16:01.441Z,73.50
2022-12-12T07:18:29.623Z,73.30
2022-12-12T07:20:57.510Z,73.20
2022-12-12T07:23:25.511Z,74.30
2022-12-12T07:25:54.754Z,74.70
2022-12-12T07:28:22.652Z,76.30
2022-12-12T07:30:50.607Z,76.70
2022-12-12T07:33:18.613Z,76.80
2022-12-12T07:35:46.581Z,76.90
2022-12-12T07:38:15.657Z,75.90
2022-12-12T07:40:43.607Z,75.90
2022-12-12T07:43:12.831Z,77.80
2022-12-12T07:45:44.501Z,77.80
2022-12-12T07:48:12.508Z,78.80
2022-12-12T07:50:40.846Z,77.70
2022-12-12T07:53:08.923Z,78.40
2022-12-12T07:55:39.958Z,78.00
2022-12-12T07:58:07.968Z,79.80
2022-12-12T08:00:37.303Z,79.60
2022-12-12T08:03:05.307Z,80.00
2022-12-12T08:05:33.332Z,79.70
2022-12-12T08:08:01.231Z,80.20
2022-12-12T08:10:29.154Z,79.80
2022-12-12T08:12:57.113Z,79.90
2022-12-12T08:15:25.009Z,79.30
2022-12-12T08:17:54.225Z,79.40
2022-12-12T08:20:22.945Z,79.20
2022-12-12T08:22:50.847Z,78.60
2022-12-12T08:25:18.846Z,77.60
2022-12-12T08:27:46.701Z,76.70
2022-12-12T08:30:14.896Z,76.00
2022-12-12T08:32:42.812Z,74.90
2022-12-12T08:35:12.813Z,74.20
2022-12-12T08:37:40.981Z,73.40
2022-12-12T08:40:10.217Z,73.40
2022-12-12T08:42:38.132Z,72.80
2022-12-12T08:45:06.846Z,72.70
2022-12-12T08:47:34.773Z,72.10
2022-12-12T08:50:02.632Z,71.10
2022-12-12T08:52:31.879Z,71.10
2022-12-12T08:54:59.816Z,70.60
2022-12-12T08:57:27.781Z,69.60
2022-12-12T08:59:55.653Z,70.00
2022-12-12T09:02:23.624Z,70.40
2022-12-12T09:04:51.584Z,70.40
2022-12-12T09:07:19.447Z,71.20
2022-12-12T09:09:48.682Z,71.70
2022-12-12T09:12:16.574Z,71.30
2022-12-12T09:14:44.429Z,69.50
2022-12-12T09:17:12.285Z,69.90
2022-12-12T09:19:40.314Z,70.30
2022-12-12T09:22:08.190Z,71.70
2022-12-12T09:24:36.101Z,70.90
2022-12-12T09:27:05.409Z,69.80
2022-12-12T09:29:33.494Z,70.30
2022-12-12T09:32:06.275Z,69.20
2022-12-12T09:34:34.281Z,69.30
2022-12-12T09:37:02.967Z,69.80
2022-12-12T09:39:30.862Z,69.40
2022-12-12T09:41:59.085Z,71.80
2022-12-12T09:44:28.656Z,70.50
2022-12-12T09:47:00.530Z,70.30
2022-12-12T09:49:43.209Z,69.60
2022-12-12T09:52:15.053Z,69.70
2022-12-12T09:54:43.096Z,68.40
2022-12-12T09:57:27.285Z,68.70
2022-12-12T10:00:02.957Z,66.60
2022-12-12T10:02:47.368Z,65.40
2022-12-12T10:05:25.668Z,64.80
2022-12-12T10:08:02.311Z,65.60
2022-12-12T10:10:34.128Z,65.00
2022-12-12T10:13:05.067Z,62.60
2022-12-12T10:15:39.304Z,64.10
2022-12-12T10:18:14.217Z,63.90
2022-12-12T10:20:47.705Z,61.80
2022-12-12T10:23:22.544Z,63.80
2022-12-12T10:25:55.978Z,63.60
2022-12-12T10:28:26.989Z,61.20
2022-12-12T10:31:06.146Z,59.90
2022-12-12T10:33:43.971Z,61.10
2022-12-12T10:36:20.499Z,60.80
2022-12-12T10:39:04.564Z,61.10
2022-12-12T10:41:41.125Z,61.50
2022-12-12T10:44:20.433Z,61.10
2022-12-12T10:46:56.345Z,60.70
2022-12-12T10:49:25.498Z,59.40
2022-12-12T10:51:54.490Z,61.10
2022-12-12T10:54:25.176Z,60.30
2022-12-12T10:57:07.850Z,58.90
2022-12-12T10:59:43.660Z,60.00
2022-12-12T11:02:38.716Z,59.80
2022-12-12T11:05:19.205Z,59.40
2022-12-12T11:07:49.410Z,60.90
2022-12-12T11:10:36.597Z,60.10
2022-12-12T11:13:15.656Z,60.40
2022-12-12T11:15:50.744Z,59.40
2022-12-12T11:18:22.356Z,59.40
2022-12-12T11:20:52.957Z,59.70
2022-12-12T11:23:23.971Z,60.10
2022-12-12T11:25:57.341Z,60.90
2022-12-12T11:28:28.833Z,59.50
2022-12-12T11:30:58.114Z,61.00
2022-12-12T11:33:33.501Z,60.30
2022-12-12T11:36:04.015Z,61.50
2022-12-12T11:38:36.700Z,61.40
2022-12-12T11:41:07.313Z,61.70
2022-12-12T11:43:38.432Z,61.70
2022-12-12T11:46:09.161Z,62.30
2022-12-12T11:48:56.730Z,62.80
2022-12-12T11:51:34.675Z,62.30
2022-12-12T11:54:03.971Z,62.40
2022-12-12T11:56:45.244Z,64.00
2022-12-12T11:59:30.235Z,63.30
2022-12-12T12:02:07.051Z,62.50
2022-12-12T12:04:53.264Z,60.90
2022-12-12T12:07:44.938Z,59.70
2022-12-12T12:10:24.385Z,58.40
2022-12-12T12:13:00.206Z,57.90
2022-12-12T12:15:36.764Z,58.40
2022-12-12T12:18:30.010Z,58.10
2022-12-12T12:21:27.164Z,58.30
2022-12-12T12:24:08.974Z,57.90
2022-12-12T12:26:41.373Z,57.20
2022-12-12T12:29:29.794Z,58.40
2022-12-12T12:32:05.614Z,57.80
2022-12-12T12:34:44.928Z,56.40
2022-12-12T12:37:28.343Z,56.10
2022-12-12T12:40:15.144Z,55.70
2022-12-12T12:42:53.786Z,53.60
2022-12-12T12:45:29.608Z,53.10
2022-12-12T12:48:05.774Z,53.90
2022-12-12T12:50:41.262Z,54.10
2022-12-12T12:53:25.245Z,55.00
2022-12-12T12:55:58.029Z,55.10
2022-12-12T12:58:30.096Z,54.70
2022-12-12T13:01:02.904Z,55.00
2022-12-12T13:03:36.392Z,55.40
2022-12-12T13:06:09.395Z,55.10
2022-12-12T13:08:48.374Z,55.20
2022-12-12T13:11:22.618Z,54.20
2022-12-12T13:13:53.083Z,54.90
2022-12-12T13:16:23.819Z,53.90
2022-12-12T13:19:03.531Z,55.20
2022-12-12T13:21:36.366Z,53.60
2022-12-12T13:24:14.869Z,54.40
2022-12-12T13:26:49.614Z,53.30
2022-12-12T13:29:33.687Z,53.40
2022-12-12T13:32:37.650Z,53.30
2022-12-12T13:35:10.625Z,52.40
2022-12-12T13:37:47.786Z,53.30
2022-12-12T13:40:29.449Z,53.30
2022-12-12T13:43:05.656Z,53.40
2022-12-12T13:45:40.490Z,53.30
2022-12-12T13:48:34.562Z,53.30
2022-12-12T13:51:40.699Z,52.80
2022-12-12T13:54:51.284Z,52.50
2022-12-12T13:57:26.593Z,51.90
2022-12-12T14:00:17.891Z,52.40
2022-12-12T14:02:59.478Z,52.80
2022-12-12T14:05:31.973Z,53.20
2022-12-12T14:08:05.356Z,54.00
2022-12-12T14:10:36.378Z,54.80
2022-12-12T14:13:20.465Z,54.80
2022-12-12T14:15:50.163Z,54.00
2022-12-12T14:18:23.698Z,54.70
2022-12-12T14:20:59.731Z,55.60
2022-12-12T14:23:30.304Z,55.60
2022-12-12T14:25:59.820Z,55.70
2022-12-12T14:28:30.725Z,55.90
2022-12-12T14:31:14.666Z,55.20
2022-12-12T14:34:11.290Z,54.90
2022-12-12T14:37:16.802Z,54.80
2022-12-12T14:40:07.985Z,55.20
2022-12-12T14:43:15.513Z,55.20
2022-12-12T14:45:55.246Z,55.20
2022-12-12T14:48:25.180Z,55.50
2022-12-12T14:51:05.868Z,56.40
2022-12-12T14:53:42.268Z,56.70
2022-12-12T14:56:12.131Z,57.80
2022-12-12T14:58:42.727Z,58.20
2022-12-12T15:01:12.591Z,59.20
2022-12-12T15:03:45.090Z,59.20
2022-12-12T15:06:34.096Z,59.40
2022-12-12T15:09:11.664Z,60.00
2022-12-12T15:11:39.536Z,62.20
2022-12-12T15:14:07.412Z,62.30
2022-12-12T15:16:47.771Z,61.70
2022-12-12T15:19:19.426Z,61.90
2022-12-12T15:21:48.734Z,62.50
2022-12-12T15:24:21.057Z,62.20
2022-12-12T15:26:52.190Z,63.50
2022-12-12T15:29:22.837Z,63.90
2022-12-12T15:31:59.908Z,63.80
2022-12-12T15:34:40.259Z,65.20
2022-12-12T15:37:23.788Z,64.40
2022-12-12T15:40:03.536Z,64.80
2022-12-12T15:42:31.635Z,64.80
2022-12-12T15:44:59.667Z,64.90
2022-12-12T15:47:28.945Z,65.40
2022-12-12T15:50:08.443Z,64.90
2022-12-12T15:52:36.730Z,65.40
2022-12-12T15:55:06.280Z,65.50
2022-12-12T15:57:45.623Z,65.50
2022-12-12T16:00:29.336Z,65.50
2022-12-12T16:03:05.213Z,67.00
2022-12-12T16:05:35.822Z,66.90
2022-12-12T16:08:36.789Z,66.40
2022-12-12T16:11:07.337Z,67.40
2022-12-12T16:13:40.328Z,68.60
2022-12-12T16:16:38.445Z,66.50
2022-12-12T16:19:27.924Z,67.20
2022-12-12T16:21:56.833Z,66.80
2022-12-12T16:24:26.959Z,66.20
2022-12-12T16:26:58.741Z,65.30
2022-12-12T16:29:26.652Z,64.40
2022-12-12T16:31:56.062Z,65.80
2022-12-12T16:34:25.326Z,66.30
2022-12-12T16:36:54.083Z,66.10
2022-12-12T16:39:21.945Z,66.70
2022-12-12T16:41:49.911Z,67.00
2022-12-12T16:44:17.754Z,68.10
2022-12-12T16:46:45.622Z,67.70
2022-12-12T16:49:15.519Z,67.60
2022-12-12T16:51:45.006Z,66.90
2022-12-12T16:54:16.836Z,65.10
2022-12-12T16:56:50.479Z,65.20
2022-12-12T16:59:18.571Z,67.20
2022-12-12T17:01:46.459Z,68.60
2022-12-12T17:04:22.116Z,68.50
2022-12-12T17:06:51.769Z,68.20
2022-12-12T17:09:21.446Z,68.60
2022-12-12T17:11:50.239Z,68.00
2022-12-12T17:14:22.110Z,65.00
2022-12-12T17:16:50.465Z,63.80
2022-12-12T17:19:18.393Z,65.20
2022-12-12T17:21:46.527Z,66.10
2022-12-12T17:24:15.711Z,66.10
2022-12-12T17:26:43.860Z,66.10
2022-12-12T17:29:11.735Z,66.50
2022-12-12T17:31:40.571Z,66.20
2022-12-12T17:34:08.522Z,66.20
2022-12-12T17:36:36.382Z,66.20
2022-12-12T17:39:04.786Z,66.00
2022-12-12T17:41:34.084Z,65.20
2022-12-12T17:44:02.048Z,67.00
2022-12-12T17:46:30.022Z,68.00
2022-12-12T17:49:01.812Z,68.10
2022-12-12T17:51:29.930Z,68.10
2022-12-12T17:54:00.047Z,66.80
2022-12-12T17:56:28.338Z,65.30
2022-12-12T17:58:57.607Z,65.40
2022-12-12T18:01:27.979Z,64.80
2022-12-12T18:03:56.556Z,65.70
2022-12-12T18:06:26.286Z,65.90
2022-12-12T18:08:54.581Z,65.50
2022-12-12T18:11:26.799Z,61.10
2022-12-12T18:13:55.280Z,60.90
2022-12-12T18:16:25.472Z,60.70
2022-12-12T18:18:54.284Z,61.10
2022-12-12T18:21:58.588Z,61.10
2022-12-12T18:24:12.238Z,62.90
2022-12-12T18:26:40.329Z,63.40
2022-12-12T18:29:09.931Z,63.70
2022-12-12T18:31:39.200Z,63.20
2022-12-12T18:34:07.252Z,63.20
2022-12-12T18:36:35.314Z,63.40
2022-12-12T18:39:05.201Z,64.40
2022-12-12T18:41:36.313Z,65.30
2022-12-12T18:44:06.916Z,66.00
2022-12-12T18:46:42.002Z,65.70
2022-12-12T18:49:13.631Z,65.10
2022-12-12T18:51:42.021Z,64.40
2022-12-12T18:54:14.719Z,64.60
2022-12-12T18:56:44.596Z,64.40
2022-12-12T18:59:12.518Z,63.80
2022-12-12T19:01:40.542Z,64.00
2022-12-12T19:04:12.472Z,64.50
2022-12-12T19:06:43.221Z,64.80
2022-12-12T19:09:14.505Z,65.10
2022-12-12T19:11:42.903Z,64.70
2022-12-12T19:14:13.255Z,63.30
2022-12-12T19:16:41.355Z,62.20
2022-12-12T19:19:10.194Z,61.30
2022-12-12T19:21:38.523Z,60.60
2022-12-12T19:24:10.556Z,61.20
2022-12-12T19:26:39.643Z,62.20
2022-12-12T19:29:09.456Z,64.20
2022-12-12T19:31:37.550Z,64.70
2022-12-12T19:34:07.474Z,64.10
2022-12-12T19:36:36.339Z,62.60
2022-12-12T19:39:07.825Z,62.40
2022-12-12T19:41:36.373Z,62.10
2022-12-12T19:44:08.601Z,62.90
2022-12-12T19:46:36.721Z,63.60
2022-12-12T19:49:07.260Z,63.50
2022-12-12T19:51:38.438Z,63.30
2022-12-12T19:54:10.246Z,63.00
2022-12-12T19:56:40.852Z,62.70
2022-12-12T19:59:09.642Z,63.50
2022-12-12T20:01:38.875Z,62.30
2022-12-12T20:04:09.090Z,62.00
2022-12-12T20:06:44.626Z,60.60
2022-12-12T20:09:15.906Z,59.80
2022-12-12T20:11:45.379Z,60.50
2022-12-12T20:14:14.364Z,61.10
2022-12-12T20:16:42.280Z,62.00
2022-12-12T20:19:10.321Z,63.60
2022-12-12T20:24:29.247Z,62.50
2022-12-12T20:26:59.256Z,60.60
2022-12-12T20:29:27.137Z,61.30
2022-12-12T20:31:54.989Z,59.80
2022-12-12T20:34:24.521Z,59.60
2022-12-12T20:36:55.464Z,59.40
2022-12-12T20:39:24.728Z,59.40
2022-12-12T20:41:54.847Z,60.50
2022-12-12T20:44:24.084Z,61.30
2022-12-12T20:46:52.144Z,61.20
2022-12-12T20:49:23.900Z,61.40
2022-12-12T20:51:56.804Z,61.60
2022-12-12T20:54:26.120Z,62.10
2022-12-12T20:56:55.832Z,62.40
2022-12-12T20:59:24.555Z,62.60
2022-12-12T21:01:52.910Z,62.70
2022-12-12T21:04:21.008Z,63.20
2022-12-12T21:06:49.954Z,62.00
2022-12-12T21:09:23.675Z,60.80
2022-12-12T21:11:53.075Z,60.10
2022-12-12T21:14:22.383Z,60.00
2022-12-12T21:16:50.254Z,60.20
2022-12-12T21:19:19.396Z,59.50
2022-12-12T21:21:47.848Z,59.30
2022-12-12T21:24:17.619Z,59.70
2022-12-12T21:26:46.701Z,60.90
2022-12-12T21:29:15.421Z,61.70
2022-12-12T21:31:50.833Z,59.60
2022-12-12T21:34:20.885Z,59.80
2022-12-12T21:36:52.159Z,58.50
2022-12-12T21:39:20.396Z,59.10
2022-12-12T21:41:48.341Z,60.50
2022-12-12T21:44:16.222Z,61.00
2022-12-12T21:46:45.449Z,61.30
2022-12-12T21:49:30.531Z,62.00
2022-12-12T21:52:00.165Z,62.20
2022-12-12T21:54:29.719Z,62.10
2022-12-12T21:56:58.066Z,61.30
2022-12-12T21:59:26.921Z,61.70
2022-12-12T22:01:57.248Z,62.20
2022-12-12T22:04:26.437Z,61.80
2022-12-12T22:06:54.359Z,59.40
2022-12-12T22:09:22.269Z,59.90
2022-12-12T22:11:52.058Z,58.00
2022-12-12T22:14:21.731Z,58.10
2022-12-12T22:16:50.271Z,57.90
2022-12-12T22:19:19.526Z,58.70
2022-12-12T22:21:48.830Z,59.00
2022-12-12T22:24:18.293Z,59.00
2022-12-12T22:26:48.049Z,59.40
2022-12-12T22:29:18.021Z,60.30
2022-12-12T22:31:46.289Z,60.50
2022-12-12T22:34:16.592Z,60.10
2022-12-12T22:36:46.559Z,59.70
2022-12-12T22:39:15.958Z,60.00
2022-12-12T22:41:44.015Z,59.90
2022-12-12T22:44:16.653Z,59.20
2022-12-12T22:46:44.957Z,58.30
2022-12-12T22:49:14.339Z,56.60
2022-12-12T22:51:42.557Z,57.50
2022-12-12T22:54:12.112Z,57.50
2022-12-12T22:56:41.318Z,58.60
2022-12-12T22:59:11.098Z,58.30
2022-12-12T23:01:39.174Z,58.40
2022-12-12T23:04:07.989Z,58.80
2022-12-12T23:06:37.358Z,59.40
2022-12-12T23:09:07.133Z,59.80
2022-12-12T23:11:37.167Z,59.30
2022-12-12T23:14:07.171Z,59.90
2022-12-12T23:16:35.848Z,60.00
2022-12-12T23:19:05.961Z,58.80
2022-12-12T23:21:35.406Z,57.40
2022-12-12T23:24:03.930Z,58.60
2022-12-12T23:26:34.157Z,58.80
2022-12-12T23:29:04.518Z,59.10
2022-12-12T23:31:41.593Z,59.20
2022-12-12T23:34:14.371Z,58.90
2022-12-12T23:36:43.648Z,59.20
2022-12-12T23:39:12.304Z,59.30
2022-12-12T23:41:40.396Z,59.30
2022-12-12T23:44:11.217Z,60.00
2022-12-12T23:46:39.090Z,59.90
2022-12-12T23:49:08.741Z,60.70
2022-12-12T23:51:38.907Z,59.00
2022-12-12T23:54:10.292Z,57.60
2022-12-12T23:56:38.849Z,57.80
2022-12-12T23:59:06.882Z,57.90
